LFMA weather

Public forecast

Using degrees Celsius for public forecast. Weather courtesy of forecast.io.

Closest aviation weather report (METAR) to Aérodrome d'Aix - Les Milles

Closest report is Marseille Provence Airport, 7.5 nm (13.9 km) WSW. Retrieved 2020/08/09 02:00 UTC (7 minutes ago):

LFML 090200Z AUTO 12005KT 7000 NSC 21/20 Q1016 TEMPO 0600 FG VV///

Closest aviation forecast (TAF) to Aérodrome d'Aix - Les Milles

Closest forecast is Marseille Provence Airport, 7.5 nm (13.9 km) WSW. Retrieved 2020/08/08 21:24 UTC (5 hours ago):

TAF TAF LFML 082000Z 0821/1003 VRB04KT CAVOK TX33/0913Z TN20/0904Z TEMPO 0821/0907 2000 BR BKN003 PROB40 0822/0905 0600 FG VV/// BECMG 0911/0913 25010KT BECMG 0917/0919 VRB03KT TEMPO 0923/1003 2000 BR BKN004 PROB30 TEMPO 0923/1003 0700 FG BKN001